sensor_id;sensor_type;location;lat;lon;timestamp;temperature;humidity
2995;DHT22;35277;49.890;8.222;2023-09-18T00:00:44;28.00;79.90
2995;DHT22;35277;49.890;8.222;2023-09-18T00:03:12;27.90;79.90
2995;DHT22;35277;49.890;8.222;2023-09-18T00:05:40;27.90;79.90
2995;DHT22;35277;49.890;8.222;2023-09-18T00:08:08;27.90;79.80
2995;DHT22;35277;49.890;8.222;2023-09-18T00:10:36;27.90;79.80
2995;DHT22;35277;49.890;8.222;2023-09-18T00:13:04;27.90;79.80
2995;DHT22;35277;49.890;8.222;2023-09-18T00:15:33;27.90;79.80
2995;DHT22;35277;49.890;8.222;2023-09-18T00:18:01;27.90;79.80
2995;DHT22;35277;49.890;8.222;2023-09-18T00:20:28;27.90;80.60
2995;DHT22;35277;49.890;8.222;2023-09-18T00:22:56;27.90;79.80
2995;DHT22;35277;49.890;8.222;2023-09-18T00:25:24;27.90;79.80
2995;DHT22;35277;49.890;8.222;2023-09-18T00:27:52;27.90;79.80
2995;DHT22;35277;49.890;8.222;2023-09-18T00:30:20;27.90;79.80
2995;DHT22;35277;49.890;8.222;2023-09-18T00:32:49;28.00;79.80
2995;DHT22;35277;49.890;8.222;2023-09-18T00:35:17;27.90;79.70
2995;DHT22;35277;49.890;8.222;2023-09-18T00:37:45;27.90;79.70
2995;DHT22;35277;49.890;8.222;2023-09-18T00:40:13;27.90;79.70
2995;DHT22;35277;49.890;8.222;2023-09-18T00:42:42;27.90;79.80
2995;DHT22;35277;49.890;8.222;2023-09-18T00:45:10;27.90;79.70
2995;DHT22;35277;49.890;8.222;2023-09-18T00:47:38;27.90;79.70
2995;DHT22;35277;49.890;8.222;2023-09-18T00:50:09;27.90;79.70
2995;DHT22;35277;49.890;8.222;2023-09-18T00:52:39;27.90;79.70
2995;DHT22;35277;49.890;8.222;2023-09-18T00:55:08;27.90;79.70
2995;DHT22;35277;49.890;8.222;2023-09-18T00:57:36;27.90;79.70
2995;DHT22;35277;49.890;8.222;2023-09-18T01:00:05;27.90;79.70
2995;DHT22;35277;49.890;8.222;2023-09-18T01:02:34;27.90;79.70
2995;DHT22;35277;49.890;8.222;2023-09-18T01:05:02;27.90;79.70
2995;DHT22;35277;49.890;8.222;2023-09-18T01:07:31;27.90;79.70
2995;DHT22;35277;49.890;8.222;2023-09-18T01:09:59;27.90;79.80
2995;DHT22;35277;49.890;8.222;2023-09-18T01:12:30;27.90;79.70
2995;DHT22;35277;49.890;8.222;2023-09-18T01:15:04;27.90;79.70
2995;DHT22;35277;49.890;8.222;2023-09-18T01:17:36;27.90;79.70
2995;DHT22;35277;49.890;8.222;2023-09-18T01:20:05;27.90;79.70
2995;DHT22;35277;49.890;8.222;2023-09-18T01:22:38;27.90;79.70
2995;DHT22;35277;49.890;8.222;2023-09-18T01:25:06;27.90;79.70
2995;DHT22;35277;49.890;8.222;2023-09-18T01:27:34;27.90;79.70
2995;DHT22;35277;49.890;8.222;2023-09-18T01:30:02;27.90;79.70
2995;DHT22;35277;49.890;8.222;2023-09-18T01:32:32;27.90;79.70
2995;DHT22;35277;49.890;8.222;2023-09-18T01:35:01;27.90;79.70
2995;DHT22;35277;49.890;8.222;2023-09-18T01:37:31;27.90;79.70
2995;DHT22;35277;49.890;8.222;2023-09-18T01:40:06;27.90;79.70
2995;DHT22;35277;49.890;8.222;2023-09-18T01:42:34;27.90;79.70
2995;DHT22;35277;49.890;8.222;2023-09-18T01:45:03;27.90;79.70
2995;DHT22;35277;49.890;8.222;2023-09-18T01:47:32;27.90;79.70
2995;DHT22;35277;49.890;8.222;2023-09-18T01:50:03;27.90;79.70
2995;DHT22;35277;49.890;8.222;2023-09-18T01:52:32;27.90;79.70
2995;DHT22;35277;49.890;8.222;2023-09-18T01:55:03;27.90;79.70
2995;DHT22;35277;49.890;8.222;2023-09-18T01:57:31;27.90;79.70
2995;DHT22;35277;49.890;8.222;2023-09-18T02:00:00;27.90;79.70
2995;DHT22;35277;49.890;8.222;2023-09-18T02:02:38;27.90;79.70
2995;DHT22;35277;49.890;8.222;2023-09-18T02:05:26;27.90;79.70
2995;DHT22;35277;49.890;8.222;2023-09-18T02:07:55;27.90;79.70
2995;DHT22;35277;49.890;8.222;2023-09-18T02:10:24;27.90;79.70
2995;DHT22;35277;49.890;8.222;2023-09-18T02:12:52;27.90;79.70
2995;DHT22;35277;49.890;8.222;2023-09-18T02:15:20;27.90;79.70
2995;DHT22;35277;49.890;8.222;2023-09-18T02:17:48;27.90;79.70
2995;DHT22;35277;49.890;8.222;2023-09-18T02:20:16;27.90;79.70
2995;DHT22;35277;49.890;8.222;2023-09-18T02:22:44;27.90;79.70
2995;DHT22;35277;49.890;8.222;2023-09-18T02:25:13;27.90;79.70
2995;DHT22;35277;49.890;8.222;2023-09-18T02:27:42;27.90;79.70
2995;DHT22;35277;49.890;8.222;2023-09-18T02:30:11;27.90;79.70
2995;DHT22;35277;49.890;8.222;2023-09-18T02:32:39;27.90;79.70
2995;DHT22;35277;49.890;8.222;2023-09-18T02:35:08;27.90;79.70
2995;DHT22;35277;49.890;8.222;2023-09-18T02:37:36;27.90;79.70
2995;DHT22;35277;49.890;8.222;2023-09-18T02:40:07;27.90;79.70
2995;DHT22;35277;49.890;8.222;2023-09-18T02:42:35;27.90;79.70
2995;DHT22;35277;49.890;8.222;2023-09-18T02:45:05;27.90;79.60
2995;DHT22;35277;49.890;8.222;2023-09-18T02:47:35;27.90;79.70
2995;DHT22;35277;49.890;8.222;2023-09-18T02:50:05;27.90;79.60
2995;DHT22;35277;49.890;8.222;2023-09-18T02:52:33;27.90;79.60
2995;DHT22;35277;49.890;8.222;2023-09-18T02:55:01;27.90;79.70
2995;DHT22;35277;49.890;8.222;2023-09-18T02:57:30;27.90;79.60
2995;DHT22;35277;49.890;8.222;2023-09-18T02:59:58;27.90;79.60
2995;DHT22;35277;49.890;8.222;2023-09-18T03:02:27;27.90;79.60
2995;DHT22;35277;49.890;8.222;2023-09-18T03:04:56;27.90;79.60
2995;DHT22;35277;49.890;8.222;2023-09-18T03:07:24;27.90;79.60
2995;DHT22;35277;49.890;8.222;2023-09-18T03:09:56;27.90;79.60
2995;DHT22;35277;49.890;8.222;2023-09-18T03:12:24;27.90;79.60
2995;DHT22;35277;49.890;8.222;2023-09-18T03:14:52;27.90;79.60
2995;DHT22;35277;49.890;8.222;2023-09-18T03:17:20;27.90;79.60
2995;DHT22;35277;49.890;8.222;2023-09-18T03:19:50;27.90;79.60
2995;DHT22;35277;49.890;8.222;2023-09-18T03:22:18;27.90;79.60
2995;DHT22;35277;49.890;8.222;2023-09-18T03:24:46;27.90;79.60
2995;DHT22;35277;49.890;8.222;2023-09-18T03:27:14;27.90;79.60
2995;DHT22;35277;49.890;8.222;2023-09-18T03:29:42;27.90;79.60
2995;DHT22;35277;49.890;8.222;2023-09-18T03:32:11;27.90;79.60
2995;DHT22;35277;49.890;8.222;2023-09-18T03:34:40;27.90;79.60
2995;DHT22;35277;49.890;8.222;2023-09-18T03:37:10;27.90;79.60
2995;DHT22;35277;49.890;8.222;2023-09-18T03:39:38;27.90;79.60
2995;DHT22;35277;49.890;8.222;2023-09-18T03:42:06;27.90;79.60
2995;DHT22;35277;49.890;8.222;2023-09-18T03:44:34;27.90;79.60
2995;DHT22;35277;49.890;8.222;2023-09-18T03:47:02;27.90;79.60
2995;DHT22;35277;49.890;8.222;2023-09-18T03:49:30;27.90;79.60
2995;DHT22;35277;49.890;8.222;2023-09-18T03:51:58;27.90;79.60
2995;DHT22;35277;49.890;8.222;2023-09-18T03:54:27;27.90;79.50
2995;DHT22;35277;49.890;8.222;2023-09-18T03:56:55;27.90;79.60
2995;DHT22;35277;49.890;8.222;2023-09-18T03:59:23;27.90;79.60
2995;DHT22;35277;49.890;8.222;2023-09-18T04:01:51;27.90;79.60
2995;DHT22;35277;49.890;8.222;2023-09-18T04:04:19;27.90;79.60
2995;DHT22;35277;49.890;8.222;2023-09-18T04:06:47;27.90;79.60
2995;DHT22;35277;49.890;8.222;2023-09-18T04:09:16;27.90;79.60
2995;DHT22;35277;49.890;8.222;2023-09-18T04:11:46;27.90;79.60
2995;DHT22;35277;49.890;8.222;2023-09-18T04:14:13;27.90;79.60
2995;DHT22;35277;49.890;8.222;2023-09-18T04:16:41;27.80;79.50
2995;DHT22;35277;49.890;8.222;2023-09-18T04:19:10;27.90;79.60
2995;DHT22;35277;49.890;8.222;2023-09-18T04:21:38;27.90;79.60
2995;DHT22;35277;49.890;8.222;2023-09-18T04:24:06;27.90;79.60
2995;DHT22;35277;49.890;8.222;2023-09-18T04:26:34;27.80;79.50
2995;DHT22;35277;49.890;8.222;2023-09-18T04:29:03;27.90;79.60
2995;DHT22;35277;49.890;8.222;2023-09-18T04:31:31;27.80;79.50
2995;DHT22;35277;49.890;8.222;2023-09-18T04:34:00;27.90;79.60
2995;DHT22;35277;49.890;8.222;2023-09-18T04:36:30;27.80;79.50
2995;DHT22;35277;49.890;8.222;2023-09-18T04:39:01;27.80;79.50
2995;DHT22;35277;49.890;8.222;2023-09-18T04:41:30;27.80;79.50
2995;DHT22;35277;49.890;8.222;2023-09-18T04:43:59;27.80;79.50
2995;DHT22;35277;49.890;8.222;2023-09-18T04:46:28;27.80;79.50
2995;DHT22;35277;49.890;8.222;2023-09-18T04:48:56;27.80;79.50
2995;DHT22;35277;49.890;8.222;2023-09-18T04:51:24;27.80;79.50
2995;DHT22;35277;49.890;8.222;2023-09-18T04:53:52;27.80;79.50
2995;DHT22;35277;49.890;8.222;2023-09-18T04:56:21;27.80;79.50
2995;DHT22;35277;49.890;8.222;2023-09-18T04:58:49;27.80;79.50
2995;DHT22;35277;49.890;8.222;2023-09-18T05:01:18;27.80;79.40
2995;DHT22;35277;49.890;8.222;2023-09-18T05:03:49;27.80;79.40
2995;DHT22;35277;49.890;8.222;2023-09-18T05:06:18;27.90;79.50
2995;DHT22;35277;49.890;8.222;2023-09-18T05:08:46;27.80;79.40
2995;DHT22;35277;49.890;8.222;2023-09-18T05:11:14;27.80;79.50
2995;DHT22;35277;49.890;8.222;2023-09-18T05:13:42;27.80;79.50
2995;DHT22;35277;49.890;8.222;2023-09-18T05:16:09;27.80;79.60
2995;DHT22;35277;49.890;8.222;2023-09-18T05:18:37;27.80;79.70
2995;DHT22;35277;49.890;8.222;2023-09-18T05:21:07;27.80;79.90
2995;DHT22;35277;49.890;8.222;2023-09-18T05:23:36;27.80;80.00
2995;DHT22;35277;49.890;8.222;2023-09-18T05:26:04;27.90;80.90
2995;DHT22;35277;49.890;8.222;2023-09-18T05:28:32;27.90;80.10
2995;DHT22;35277;49.890;8.222;2023-09-18T05:31:00;27.90;80.10
2995;DHT22;35277;49.890;8.222;2023-09-18T05:33:28;27.90;80.00
2995;DHT22;35277;49.890;8.222;2023-09-18T05:35:56;27.80;79.60
2995;DHT22;35277;49.890;8.222;2023-09-18T05:38:25;27.80;79.50
2995;DHT22;35277;49.890;8.222;2023-09-18T05:40:53;27.80;79.40
2995;DHT22;35277;49.890;8.222;2023-09-18T05:43:21;27.80;79.30
2995;DHT22;35277;49.890;8.222;2023-09-18T05:45:49;27.80;79.30
2995;DHT22;35277;49.890;8.222;2023-09-18T05:48:17;27.80;79.30
2995;DHT22;35277;49.890;8.222;2023-09-18T05:50:46;27.80;79.20
2995;DHT22;35277;49.890;8.222;2023-09-18T05:53:14;27.80;79.10
2995;DHT22;35277;49.890;8.222;2023-09-18T05:55:43;27.80;79.00
2995;DHT22;35277;49.890;8.222;2023-09-18T05:58:12;27.70;78.80
2995;DHT22;35277;49.890;8.222;2023-09-18T06:00:40;27.70;78.60
2995;DHT22;35277;49.890;8.222;2023-09-18T06:03:17;27.70;78.60
2995;DHT22;35277;49.890;8.222;2023-09-18T06:05:47;27.70;78.50
2995;DHT22;35277;49.890;8.222;2023-09-18T06:08:15;27.70;78.40
2995;DHT22;35277;49.890;8.222;2023-09-18T06:10:44;27.70;78.40
2995;DHT22;35277;49.890;8.222;2023-09-18T06:13:12;27.60;78.30
2995;DHT22;35277;49.890;8.222;2023-09-18T06:15:40;27.60;78.30
2995;DHT22;35277;49.890;8.222;2023-09-18T06:18:08;27.60;78.20
2995;DHT22;35277;49.890;8.222;2023-09-18T06:20:36;27.70;78.30
2995;DHT22;35277;49.890;8.222;2023-09-18T06:23:04;27.60;78.20
2995;DHT22;35277;49.890;8.222;2023-09-18T06:25:32;27.60;78.20
2995;DHT22;35277;49.890;8.222;2023-09-18T06:28:01;27.60;78.10
2995;DHT22;35277;49.890;8.222;2023-09-18T06:30:31;27.60;78.20
2995;DHT22;35277;49.890;8.222;2023-09-18T06:33:00;27.60;78.10
2995;DHT22;35277;49.890;8.222;2023-09-18T06:35:28;27.60;78.10
2995;DHT22;35277;49.890;8.222;2023-09-18T06:37:56;27.60;78.10
2995;DHT22;35277;49.890;8.222;2023-09-18T06:40:25;27.60;78.10
2995;DHT22;35277;49.890;8.222;2023-09-18T06:42:58;27.50;78.10
2995;DHT22;35277;49.890;8.222;2023-09-18T06:45:28;27.60;78.20
2995;DHT22;35277;49.890;8.222;2023-09-18T06:47:55;27.50;78.10
2995;DHT22;35277;49.890;8.222;2023-09-18T06:50:23;27.50;78.10
2995;DHT22;35277;49.890;8.222;2023-09-18T06:52:51;27.60;79.00
2995;DHT22;35277;49.890;8.222;2023-09-18T06:55:19;27.50;78.10
2995;DHT22;35277;49.890;8.222;2023-09-18T06:57:47;27.50;78.20
2995;DHT22;35277;49.890;8.222;2023-09-18T07:00:17;27.50;78.20
2995;DHT22;35277;49.890;8.222;2023-09-18T07:02:49;27.50;78.30
2995;DHT22;35277;49.890;8.222;2023-09-18T07:05:17;27.50;78.30
2995;DHT22;35277;49.890;8.222;2023-09-18T07:07:45;27.50;78.30
2995;DHT22;35277;49.890;8.222;2023-09-18T07:10:12;27.50;78.30
2995;DHT22;35277;49.890;8.222;2023-09-18T07:12:40;27.50;78.30
2995;DHT22;35277;49.890;8.222;2023-09-18T07:15:09;27.50;78.40
2995;DHT22;35277;49.890;8.222;2023-09-18T07:17:37;27.50;78.40
2995;DHT22;35277;49.890;8.222;2023-09-18T07:20:07;27.50;78.40
2995;DHT22;35277;49.890;8.222;2023-09-18T07:22:45;27.50;78.40
2995;DHT22;35277;49.890;8.222;2023-09-18T07:25:14;27.50;78.40
2995;DHT22;35277;49.890;8.222;2023-09-18T07:27:41;27.50;78.40
2995;DHT22;35277;49.890;8.222;2023-09-18T07:30:11;27.50;78.50
2995;DHT22;35277;49.890;8.222;2023-09-18T07:32:40;27.50;78.40
2995;DHT22;35277;49.890;8.222;2023-09-18T07:35:10;27.50;78.40
2995;DHT22;35277;49.890;8.222;2023-09-18T07:37:38;27.50;78.50
2995;DHT22;35277;49.890;8.222;2023-09-18T07:40:07;27.50;78.40
2995;DHT22;35277;49.890;8.222;2023-09-18T07:42:35;27.50;78.50
2995;DHT22;35277;49.890;8.222;2023-09-18T07:45:03;27.60;78.50
2995;DHT22;35277;49.890;8.222;2023-09-18T07:47:31;27.60;78.50
2995;DHT22;35277;49.890;8.222;2023-09-18T07:49:59;27.60;78.60
2995;DHT22;35277;49.890;8.222;2023-09-18T07:52:29;27.60;78.60
2995;DHT22;35277;49.890;8.222;2023-09-18T07:54:58;27.60;78.60
2995;DHT22;35277;49.890;8.222;2023-09-18T07:57:26;27.60;78.50
2995;DHT22;35277;49.890;8.222;2023-09-18T07:59:54;27.60;78.60
2995;DHT22;35277;49.890;8.222;2023-09-18T08:02:22;27.60;78.60
2995;DHT22;35277;49.890;8.222;2023-09-18T08:04:50;27.70;78.60
2995;DHT22;35277;49.890;8.222;2023-09-18T08:07:19;27.70;78.60
2995;DHT22;35277;49.890;8.222;2023-09-18T08:09:48;27.70;78.70
2995;DHT22;35277;49.890;8.222;2023-09-18T08:12:16;27.70;78.60
2995;DHT22;35277;49.890;8.222;2023-09-18T08:14:44;27.70;78.60
2995;DHT22;35277;49.890;8.222;2023-09-18T08:17:13;27.70;78.70
2995;DHT22;35277;49.890;8.222;2023-09-18T08:19:41;27.70;78.60
2995;DHT22;35277;49.890;8.222;2023-09-18T08:22:10;27.70;78.60
2995;DHT22;35277;49.890;8.222;2023-09-18T08:24:41;27.70;78.60
2995;DHT22;35277;49.890;8.222;2023-09-18T08:27:13;27.70;78.60
2995;DHT22;35277;49.890;8.222;2023-09-18T08:29:43;27.70;78.60
2995;DHT22;35277;49.890;8.222;2023-09-18T08:32:11;27.70;78.60
2995;DHT22;35277;49.890;8.222;2023-09-18T08:34:39;27.70;78.60
2995;DHT22;35277;49.890;8.222;2023-09-18T08:37:06;27.70;78.50
2995;DHT22;35277;49.890;8.222;2023-09-18T08:39:35;27.70;78.50
2995;DHT22;35277;49.890;8.222;2023-09-18T08:42:05;27.70;78.50
2995;DHT22;35277;49.890;8.222;2023-09-18T08:44:38;27.70;78.50
2995;DHT22;35277;49.890;8.222;2023-09-18T08:47:08;27.70;78.50
2995;DHT22;35277;49.890;8.222;2023-09-18T08:49:38;27.70;78.50
2995;DHT22;35277;49.890;8.222;2023-09-18T08:52:07;27.80;78.50
2995;DHT22;35277;49.890;8.222;2023-09-18T08:54:35;27.70;78.50
2995;DHT22;35277;49.890;8.222;2023-09-18T08:57:04;27.80;78.40
2995;DHT22;35277;49.890;8.222;2023-09-18T08:59:36;27.70;78.40
2995;DHT22;35277;49.890;8.222;2023-09-18T09:02:05;27.80;78.40
2995;DHT22;35277;49.890;8.222;2023-09-18T09:04:33;27.70;78.30
2995;DHT22;35277;49.890;8.222;2023-09-18T09:07:02;27.80;78.30
2995;DHT22;35277;49.890;8.222;2023-09-18T09:09:30;27.80;79.10
2995;DHT22;35277;49.890;8.222;2023-09-18T09:11:58;27.80;78.30
2995;DHT22;35277;49.890;8.222;2023-09-18T09:14:26;27.80;78.30
2995;DHT22;35277;49.890;8.222;2023-09-18T09:16:57;27.80;78.30
2995;DHT22;35277;49.890;8.222;2023-09-18T09:19:29;27.80;78.30
2995;DHT22;35277;49.890;8.222;2023-09-18T09:21:57;27.80;78.30
2995;DHT22;35277;49.890;8.222;2023-09-18T09:24:37;27.80;78.20
2995;DHT22;35277;49.890;8.222;2023-09-18T09:27:05;27.80;78.20
2995;DHT22;35277;49.890;8.222;2023-09-18T09:29:33;27.80;78.20
2995;DHT22;35277;49.890;8.222;2023-09-18T09:32:16;27.80;78.20
2995;DHT22;35277;49.890;8.222;2023-09-18T09:34:45;27.80;78.20
2995;DHT22;35277;49.890;8.222;2023-09-18T09:37:13;27.80;78.20
2995;DHT22;35277;49.890;8.222;2023-09-18T09:39:48;27.80;78.20
2995;DHT22;35277;49.890;8.222;2023-09-18T09:42:18;27.80;78.20
2995;DHT22;35277;49.890;8.222;2023-09-18T09:45:00;27.80;78.20
2995;DHT22;35277;49.890;8.222;2023-09-18T09:47:33;27.80;78.20
2995;DHT22;35277;49.890;8.222;2023-09-18T09:50:12;27.80;78.20
2995;DHT22;35277;49.890;8.222;2023-09-18T09:52:43;27.80;78.10
2995;DHT22;35277;49.890;8.222;2023-09-18T09:55:23;27.90;78.20
2995;DHT22;35277;49.890;8.222;2023-09-18T09:57:53;27.80;78.10
2995;DHT22;35277;49.890;8.222;2023-09-18T10:00:25;27.80;78.20
2995;DHT22;35277;49.890;8.222;2023-09-18T10:03:00;27.90;78.20
2995;DHT22;35277;49.890;8.222;2023-09-18T10:05:31;27.90;78.30
2995;DHT22;35277;49.890;8.222;2023-09-18T10:08:02;27.90;78.30
2995;DHT22;35277;49.890;8.222;2023-09-18T10:10:33;27.90;78.20
2995;DHT22;35277;49.890;8.222;2023-09-18T10:13:09;27.90;78.20
2995;DHT22;35277;49.890;8.222;2023-09-18T10:15:38;27.90;78.00
2995;DHT22;35277;49.890;8.222;2023-09-18T10:18:22;27.90;77.90
2995;DHT22;35277;49.890;8.222;2023-09-18T10:20:59;27.90;77.80
2995;DHT22;35277;49.890;8.222;2023-09-18T10:23:37;27.90;77.70
2995;DHT22;35277;49.890;8.222;2023-09-18T10:26:07;27.80;77.50
2995;DHT22;35277;49.890;8.222;2023-09-18T10:28:39;27.80;77.40
2995;DHT22;35277;49.890;8.222;2023-09-18T10:31:08;27.80;77.40
2995;DHT22;35277;49.890;8.222;2023-09-18T10:33:39;27.80;77.40
2995;DHT22;35277;49.890;8.222;2023-09-18T10:36:08;27.80;77.40
2995;DHT22;35277;49.890;8.222;2023-09-18T10:38:37;27.80;77.40
2995;DHT22;35277;49.890;8.222;2023-09-18T10:41:06;27.80;77.40
2995;DHT22;35277;49.890;8.222;2023-09-18T10:43:36;27.90;77.50
2995;DHT22;35277;49.890;8.222;2023-09-18T10:46:05;27.80;77.40
2995;DHT22;35277;49.890;8.222;2023-09-18T10:48:33;27.90;77.50
2995;DHT22;35277;49.890;8.222;2023-09-18T10:51:02;27.90;77.50
2995;DHT22;35277;49.890;8.222;2023-09-18T10:53:32;27.90;78.30
2995;DHT22;35277;49.890;8.222;2023-09-18T10:56:01;27.90;77.50
2995;DHT22;35277;49.890;8.222;2023-09-18T10:58:31;27.90;77.50
2995;DHT22;35277;49.890;8.222;2023-09-18T11:01:02;27.90;77.50
2995;DHT22;35277;49.890;8.222;2023-09-18T11:03:33;27.90;77.50
2995;DHT22;35277;49.890;8.222;2023-09-18T11:06:07;27.90;77.70
2995;DHT22;35277;49.890;8.222;2023-09-18T11:08:43;27.90;77.80
2995;DHT22;35277;49.890;8.222;2023-09-18T11:11:13;27.90;78.00
2995;DHT22;35277;49.890;8.222;2023-09-18T11:13:44;27.90;78.10
2995;DHT22;35277;49.890;8.222;2023-09-18T11:16:33;27.90;78.00
2995;DHT22;35277;49.890;8.222;2023-09-18T11:19:16;27.90;77.60
2995;DHT22;35277;49.890;8.222;2023-09-18T11:21:47;27.80;77.50
2995;DHT22;35277;49.890;8.222;2023-09-18T11:24:18;27.70;77.50
2995;DHT22;35277;49.890;8.222;2023-09-18T11:26:47;27.60;77.50
2995;DHT22;35277;49.890;8.222;2023-09-18T11:29:18;27.50;77.40
2995;DHT22;35277;49.890;8.222;2023-09-18T11:31:51;27.40;77.50
2995;DHT22;35277;49.890;8.222;2023-09-18T11:34:22;27.40;77.80
2995;DHT22;35277;49.890;8.222;2023-09-18T11:36:51;27.40;78.00
2995;DHT22;35277;49.890;8.222;2023-09-18T11:39:35;27.50;78.10
2995;DHT22;35277;49.890;8.222;2023-09-18T11:42:10;27.50;77.90
2995;DHT22;35277;49.890;8.222;2023-09-18T11:44:39;27.50;77.80
2995;DHT22;35277;49.890;8.222;2023-09-18T11:47:14;27.50;77.80
2995;DHT22;35277;49.890;8.222;2023-09-18T11:49:49;27.50;77.60
2995;DHT22;35277;49.890;8.222;2023-09-18T11:52:22;27.50;77.50
2995;DHT22;35277;49.890;8.222;2023-09-18T11:54:51;27.50;77.20
2995;DHT22;35277;49.890;8.222;2023-09-18T11:57:19;27.50;77.10
2995;DHT22;35277;49.890;8.222;2023-09-18T11:59:47;27.50;77.10
2995;DHT22;35277;49.890;8.222;2023-09-18T12:02:25;27.40;77.00
2995;DHT22;35277;49.890;8.222;2023-09-18T12:04:54;27.40;77.00
2995;DHT22;35277;49.890;8.222;2023-09-18T12:07:24;27.40;77.00
2995;DHT22;35277;49.890;8.222;2023-09-18T12:09:52;27.30;76.90
2995;DHT22;35277;49.890;8.222;2023-09-18T12:12:21;27.20;77.00
2995;DHT22;35277;49.890;8.222;2023-09-18T12:14:49;27.10;77.20
2995;DHT22;35277;49.890;8.222;2023-09-18T12:17:20;27.10;77.40
2995;DHT22;35277;49.890;8.222;2023-09-18T12:19:52;27.10;77.60
2995;DHT22;35277;49.890;8.222;2023-09-18T12:22:25;27.00;77.60
2995;DHT22;35277;49.890;8.222;2023-09-18T12:24:55;27.00;77.70
2995;DHT22;35277;49.890;8.222;2023-09-18T12:27:37;26.90;77.70
2995;DHT22;35277;49.890;8.222;2023-09-18T12:30:07;26.90;77.80
2995;DHT22;35277;49.890;8.222;2023-09-18T12:32:36;26.90;78.00
2995;DHT22;35277;49.890;8.222;2023-09-18T12:35:06;27.00;78.10
2995;DHT22;35277;49.890;8.222;2023-09-18T12:37:39;27.00;78.10
2995;DHT22;35277;49.890;8.222;2023-09-18T12:40:20;27.10;78.10
2995;DHT22;35277;49.890;8.222;2023-09-18T12:42:48;27.10;78.10
2995;DHT22;35277;49.890;8.222;2023-09-18T12:45:16;27.20;78.10
2995;DHT22;35277;49.890;8.222;2023-09-18T12:47:44;27.20;78.10
2995;DHT22;35277;49.890;8.222;2023-09-18T12:50:13;27.20;78.00
2995;DHT22;35277;49.890;8.222;2023-09-18T12:52:42;27.30;78.10
2995;DHT22;35277;49.890;8.222;2023-09-18T12:55:21;27.30;78.00
2995;DHT22;35277;49.890;8.222;2023-09-18T12:57:49;27.40;78.10
2995;DHT22;35277;49.890;8.222;2023-09-18T13:00:18;27.40;78.10
2995;DHT22;35277;49.890;8.222;2023-09-18T13:02:48;27.40;78.10
2995;DHT22;35277;49.890;8.222;2023-09-18T13:05:19;27.40;78.00
2995;DHT22;35277;49.890;8.222;2023-09-18T13:07:48;27.50;78.10
2995;DHT22;35277;49.890;8.222;2023-09-18T13:10:17;27.50;78.10
2995;DHT22;35277;49.890;8.222;2023-09-18T13:12:46;27.50;78.10
2995;DHT22;35277;49.890;8.222;2023-09-18T13:15:25;27.50;78.10
2995;DHT22;35277;49.890;8.222;2023-09-18T13:17:55;27.60;78.20
2995;DHT22;35277;49.890;8.222;2023-09-18T13:20:25;27.60;78.20
2995;DHT22;35277;49.890;8.222;2023-09-18T13:22:56;27.60;78.20
2995;DHT22;35277;49.890;8.222;2023-09-18T13:25:25;27.60;78.20
2995;DHT22;35277;49.890;8.222;2023-09-18T13:27:54;27.60;78.20
2995;DHT22;35277;49.890;8.222;2023-09-18T13:30:22;27.60;78.10
2995;DHT22;35277;49.890;8.222;2023-09-18T13:32:50;27.60;78.10
2995;DHT22;35277;49.890;8.222;2023-09-18T13:35:19;27.60;78.10
2995;DHT22;35277;49.890;8.222;2023-09-18T13:37:47;27.60;78.00
2995;DHT22;35277;49.890;8.222;2023-09-18T13:40:16;27.60;77.80
2995;DHT22;35277;49.890;8.222;2023-09-18T13:42:43;27.60;77.60
2995;DHT22;35277;49.890;8.222;2023-09-18T13:45:11;27.50;77.30
2995;DHT22;35277;49.890;8.222;2023-09-18T13:47:42;27.50;77.10
2995;DHT22;35277;49.890;8.222;2023-09-18T13:50:10;27.40;76.90
2995;DHT22;35277;49.890;8.222;2023-09-18T13:52:39;27.40;76.80
2995;DHT22;35277;49.890;8.222;2023-09-18T13:55:08;27.30;76.70
2995;DHT22;35277;49.890;8.222;2023-09-18T13:57:37;27.30;76.70
2995;DHT22;35277;49.890;8.222;2023-09-18T14:00:07;27.30;76.70
2995;DHT22;35277;49.890;8.222;2023-09-18T14:02:38;27.30;76.70
2995;DHT22;35277;49.890;8.222;2023-09-18T14:05:07;27.30;76.80
2995;DHT22;35277;49.890;8.222;2023-09-18T14:07:36;27.30;76.80
2995;DHT22;35277;49.890;8.222;2023-09-18T14:10:06;27.40;76.90
2995;DHT22;35277;49.890;8.222;2023-09-18T14:12:34;27.40;76.70
2995;DHT22;35277;49.890;8.222;2023-09-18T14:15:04;27.40;76.70
2995;DHT22;35277;49.890;8.222;2023-09-18T14:17:33;27.40;76.70
2995;DHT22;35277;49.890;8.222;2023-09-18T14:20:02;27.50;76.70
2995;DHT22;35277;49.890;8.222;2023-09-18T14:22:33;27.50;76.50
2995;DHT22;35277;49.890;8.222;2023-09-18T14:25:02;27.50;76.40
2995;DHT22;35277;49.890;8.222;2023-09-18T14:27:33;27.50;76.30
2995;DHT22;35277;49.890;8.222;2023-09-18T14:30:04;27.50;76.20
2995;DHT22;35277;49.890;8.222;2023-09-18T14:32:34;27.50;76.30
2995;DHT22;35277;49.890;8.222;2023-09-18T14:35:04;27.50;76.50
2995;DHT22;35277;49.890;8.222;2023-09-18T14:37:35;27.40;76.40
2995;DHT22;35277;49.890;8.222;2023-09-18T14:40:04;27.40;76.30
2995;DHT22;35277;49.890;8.222;2023-09-18T14:42:34;27.40;76.20
2995;DHT22;35277;49.890;8.222;2023-09-18T14:45:04;27.40;76.70
2995;DHT22;35277;49.890;8.222;2023-09-18T14:47:33;27.40;77.00
2995;DHT22;35277;49.890;8.222;2023-09-18T14:50:01;27.40;77.10
2995;DHT22;35277;49.890;8.222;2023-09-18T14:52:29;27.40;77.10
2995;DHT22;35277;49.890;8.222;2023-09-18T14:54:58;27.40;76.80
2995;DHT22;35277;49.890;8.222;2023-09-18T14:57:26;27.30;76.50
2995;DHT22;35277;49.890;8.222;2023-09-18T14:59:54;27.30;76.30
2995;DHT22;35277;49.890;8.222;2023-09-18T15:02:23;27.20;76.20
2995;DHT22;35277;49.890;8.222;2023-09-18T15:04:56;27.20;76.20
2995;DHT22;35277;49.890;8.222;2023-09-18T15:07:25;27.20;75.90
2995;DHT22;35277;49.890;8.222;2023-09-18T15:09:53;27.10;75.60
2995;DHT22;35277;49.890;8.222;2023-09-18T15:12:21;27.10;75.50
2995;DHT22;35277;49.890;8.222;2023-09-18T15:14:49;27.10;75.30
2995;DHT22;35277;49.890;8.222;2023-09-18T15:17:16;27.10;75.30
2995;DHT22;35277;49.890;8.222;2023-09-18T15:19:47;27.10;75.30
2995;DHT22;35277;49.890;8.222;2023-09-18T15:22:19;27.00;75.20
2995;DHT22;35277;49.890;8.222;2023-09-18T15:24:48;27.00;75.10
2995;DHT22;35277;49.890;8.222;2023-09-18T15:27:17;27.00;75.10
2995;DHT22;35277;49.890;8.222;2023-09-18T15:29:45;27.00;75.20
2995;DHT22;35277;49.890;8.222;2023-09-18T15:32:13;27.00;75.20
2995;DHT22;35277;49.890;8.222;2023-09-18T15:34:40;27.00;75.20
2995;DHT22;35277;49.890;8.222;2023-09-18T15:37:10;27.00;75.20
2995;DHT22;35277;49.890;8.222;2023-09-18T15:39:38;27.00;75.20
2995;DHT22;35277;49.890;8.222;2023-09-18T15:42:06;27.00;75.20
2995;DHT22;35277;49.890;8.222;2023-09-18T15:44:34;27.00;75.10
2995;DHT22;35277;49.890;8.222;2023-09-18T15:47:02;27.00;75.10
2995;DHT22;35277;49.890;8.222;2023-09-18T15:49:31;27.10;75.20
2995;DHT22;35277;49.890;8.222;2023-09-18T15:51:59;27.10;75.10
2995;DHT22;35277;49.890;8.222;2023-09-18T15:54:28;27.10;75.00
2995;DHT22;35277;49.890;8.222;2023-09-18T15:56:56;27.10;74.90
2995;DHT22;35277;49.890;8.222;2023-09-18T15:59:24;27.10;74.90